Time;durP1;ratioP1;P1;durP2;ratioP2;P2;SDS_P1;SDS_P2;PMS_P1;PMS_P2;Temp;Humidity;BMP_temperature;BMP_pressure;BME280_temperature;BME280_humidity;BME280_pressure;Samples;Min_cycle;Max_cycle;Signal;HPM_P1;HPM_P2
2022/06/15 00:00:05;;;;;;;16.25;5.60;;;;;;;13.28;100.00;101750.63;5054189;28;20053;-63
2022/06/15 00:02:31;;;;;;;18.55;5.85;;;;;;;13.25;100.00;101747.09;5054131;28;20025;-63
2022/06/15 00:04:56;;;;;;;17.02;5.88;;;;;;;13.23;100.00;101759.44;5054072;28;20530;-64
2022/06/15 00:07:21;;;;;;;17.80;5.95;;;;;;;13.27;100.00;101748.88;5054222;28;20028;-64
2022/06/15 00:09:47;;;;;;;18.15;6.10;;;;;;;13.14;100.00;101754.06;5054260;28;20052;-64
2022/06/15 00:12:12;;;;;;;17.73;6.20;;;;;;;13.04;100.00;101753.09;5054399;28;20031;-65
2022/06/15 00:14:37;;;;;;;16.83;6.15;;;;;;;12.94;100.00;101755.69;5053831;28;20107;-65
2022/06/15 00:17:03;;;;;;;18.92;6.30;;;;;;;12.93;100.00;101746.84;5053985;28;20090;-65
2022/06/15 00:19:28;;;;;;;18.92;6.00;;;;;;;12.96;100.00;101748.59;5052701;28;20123;-64
2022/06/15 00:21:54;;;;;;;18.65;6.50;;;;;;;12.97;100.00;101750.38;5054032;28;20025;-65
2022/06/15 00:24:19;;;;;;;16.48;5.95;;;;;;;13.06;100.00;101747.81;5052986;28;20387;-65
2022/06/15 00:26:45;;;;;;;16.77;5.85;;;;;;;13.07;100.00;101750.47;5053889;28;20029;-64
2022/06/15 00:29:11;;;;;;;19.05;6.50;;;;;;;13.04;100.00;101747.78;5053616;28;20108;-64
2022/06/15 00:31:37;;;;;;;18.75;6.72;;;;;;;13.05;100.00;101746.06;5052394;28;20037;-65
2022/06/15 00:34:02;;;;;;;18.70;6.28;;;;;;;13.17;100.00;101753.22;5053998;28;20031;-65
2022/06/15 00:36:29;;;;;;;19.20;6.78;;;;;;;13.14;100.00;101742.59;5053389;28;20021;-63
2022/06/15 00:38:57;;;;;;;18.88;6.63;;;;;;;13.13;100.00;101738.13;5053719;28;20059;-65
2022/06/15 00:41:29;;;;;;;18.83;6.70;;;;;;;13.14;100.00;101735.50;5053398;28;20049;-65
2022/06/15 00:43:57;;;;;;;21.63;7.05;;;;;;;13.16;100.00;101736.38;5049589;28;20094;-65
2022/06/15 00:46:40;;;;;;;19.30;7.10;;;;;;;13.19;100.00;101735.53;5053540;28;20053;-65
2022/06/15 00:49:16;;;;;;;20.75;7.18;;;;;;;13.02;100.00;101740.72;5050886;28;20468;-65
2022/06/15 00:51:43;;;;;;;18.58;7.03;;;;;;;12.90;100.00;101737.06;5053099;28;20519;-64
2022/06/15 00:54:09;;;;;;;20.27;7.63;;;;;;;12.90;100.00;101737.06;5053389;28;20017;-65
2022/06/15 00:56:36;;;;;;;20.50;7.60;;;;;;;12.80;100.00;101737.88;5053068;28;20025;-65
2022/06/15 00:59:09;;;;;;;18.80;6.82;;;;;;;12.72;100.00;101742.19;5051694;28;20487;-65
2022/06/15 01:01:35;;;;;;;19.30;7.63;;;;;;;12.68;100.00;101738.66;5053401;28;20036;-64
2022/06/15 01:04:03;;;;;;;20.02;7.30;;;;;;;12.71;100.00;101735.09;5052875;28;20376;-65
2022/06/15 01:06:49;;;;;;;19.95;7.00;;;;;;;12.74;100.00;101729.81;5053025;28;20032;-64
2022/06/15 01:09:23;;;;;;;18.73;7.38;;;;;;;12.74;100.00;101727.19;5053100;28;20041;-65
2022/06/15 01:12:13;;;;;;;20.30;7.70;;;;;;;12.72;100.00;101724.50;5053068;28;20537;-65
2022/06/15 01:15:13;;;;;;;19.92;7.40;;;;;;;12.62;100.00;101720.00;5051229;28;20060;-65
2022/06/15 01:18:16;;;;;;;19.60;8.18;;;;;;;12.54;100.00;101725.22;5024718;28;20132;-65
2022/06/15 01:20:54;;;;;;;19.10;7.75;;;;;;;12.47;100.00;101723.38;5030845;28;20041;-65
2022/06/15 01:23:28;;;;;;;21.50;8.02;;;;;;;12.47;100.00;101727.81;5030752;28;20041;-65
2022/06/15 01:26:31;;;;;;;20.58;8.02;;;;;;;12.43;100.00;101729.53;5030683;28;20036;-65
2022/06/15 01:29:03;;;;;;;19.10;8.05;;;;;;;12.38;100.00;101728.59;5027209;28;20045;-65
2022/06/15 01:31:37;;;;;;;21.27;7.97;;;;;;;12.38;100.00;101723.31;5030536;28;20086;-65
2022/06/15 01:34:14;;;;;;;19.73;7.90;;;;;;;12.36;100.00;101717.97;5030604;28;20549;-65
2022/06/15 01:36:52;;;;;;;21.45;8.35;;;;;;;12.30;100.00;101725.84;5030112;28;20033;-65
2022/06/15 01:39:27;;;;;;;22.15;8.15;;;;;;;12.27;100.00;101719.63;5030682;28;20077;-65
2022/06/15 01:41:59;;;;;;;19.85;8.25;;;;;;;12.23;100.00;101724.00;5030438;28;20053;-65
2022/06/15 01:44:32;;;;;;;20.17;8.10;;;;;;;12.23;100.00;101716.03;5030484;28;20033;-65
2022/06/15 01:47:04;;;;;;;20.40;8.13;;;;;;;12.14;100.00;101723.91;5030497;28;20042;-64
2022/06/15 01:49:35;;;;;;;19.47;8.20;;;;;;;12.10;100.00;101720.34;5030449;28;20116;-64
2022/06/15 01:52:04;;;;;;;19.93;8.50;;;;;;;12.13;100.00;101715.06;5030566;28;20411;-64
2022/06/15 01:54:37;;;;;;;19.45;7.85;;;;;;;12.10;100.00;101712.38;5046241;28;20037;-65
2022/06/15 01:57:04;;;;;;;20.02;8.38;;;;;;;12.07;100.00;101708.78;5052589;28;20033;-64
2022/06/15 01:59:40;;;;;;;21.42;8.32;;;;;;;12.06;100.00;101710.56;5052476;28;20025;-65
2022/06/15 02:02:19;;;;;;;19.90;8.32;;;;;;;11.93;100.00;101706.88;5052529;28;20040;-65
2022/06/15 02:05:06;;;;;;;22.65;8.30;;;;;;;11.91;100.00;101711.25;5052564;28;20126;-65
2022/06/15 02:07:39;;;;;;;19.13;7.95;;;;;;;11.90;100.00;101709.44;5049552;28;20044;-64
2022/06/15 02:10:26;;;;;;;20.58;8.48;;;;;;;11.95;100.00;101710.41;5052172;28;20468;-63
2022/06/15 02:13:00;;;;;;;20.30;8.40;;;;;;;11.95;100.00;101702.47;5052247;28;20433;-65
2022/06/15 02:15:28;;;;;;;20.13;8.10;;;;;;;11.87;100.00;101706.78;5048332;28;20104;-65
2022/06/15 02:17:57;;;;;;;19.33;8.40;;;;;;;11.86;100.00;101699.69;5052130;28;20022;-64
2022/06/15 02:20:29;;;;;;;21.80;8.15;;;;;;;11.81;100.00;101696.06;5052466;28;20380;-64
2022/06/15 02:22:59;;;;;;;22.50;8.63;;;;;;;11.79;100.00;101696.06;5048083;28;20067;-65
2022/06/15 02:25:30;;;;;;;19.17;7.85;;;;;;;11.72;100.00;101694.19;5048270;28;20021;-65
2022/06/15 02:27:56;;;;;;;20.93;8.30;;;;;;;11.70;100.00;101690.66;5048557;28;20036;-65
2022/06/15 02:30:24;;;;;;;21.63;8.57;;;;;;;11.65;100.00;101697.66;5052264;28;20032;-65
2022/06/15 02:32:51;;;;;;;18.88;8.38;;;;;;;11.61;100.00;101694.06;5052065;28;20537;-65
2022/06/15 02:35:17;;;;;;;19.90;7.95;;;;;;;11.58;100.00;101695.78;5051959;28;20029;-65
2022/06/15 02:37:44;;;;;;;20.10;8.00;;;;;;;11.52;100.00;101692.19;5051938;28;20036;-65
2022/06/15 02:40:13;;;;;;;19.88;8.18;;;;;;;11.48;100.00;101692.13;5051592;28;20057;-65
2022/06/15 02:42:40;;;;;;;19.83;8.10;;;;;;;11.48;100.00;101679.75;5051928;28;20021;-65
2022/06/15 02:45:10;;;;;;;20.98;8.60;;;;;;;11.44;100.00;101683.22;5052093;28;20029;-65
2022/06/15 02:47:40;;;;;;;20.90;8.65;;;;;;;11.31;100.00;101686.56;5052219;28;20025;-65
2022/06/15 02:50:06;;;;;;;21.98;8.60;;;;;;;11.27;100.00;101682.09;5055308;28;20029;-65
2022/06/15 02:52:38;;;;;;;19.58;8.50;;;;;;;11.22;100.00;101676.75;5055659;28;20114;-65
2022/06/15 02:55:05;;;;;;;21.27;8.32;;;;;;;11.18;100.00;101679.31;5055661;28;20029;-65
2022/06/15 02:57:40;;;;;;;20.58;8.45;;;;;;;11.14;100.00;101670.47;5055495;28;20053;-63
2022/06/15 03:00:07;;;;;;;20.65;8.35;;;;;;;11.06;100.00;101675.63;5055221;28;20478;-65
2022/06/15 03:02:32;;;;;;;20.50;8.40;;;;;;;11.06;100.00;101672.97;5055561;28;20035;-64
2022/06/15 03:04:57;;;;;;;21.30;8.18;;;;;;;11.07;100.00;101674.75;5055090;28;20029;-65
2022/06/15 03:07:25;;;;;;;20.45;8.05;;;;;;;11.09;100.00;101672.13;5055196;28;20060;-65
2022/06/15 03:09:50;;;;;;;20.23;8.40;;;;;;;10.97;100.00;101670.19;5055319;28;20029;-65
2022/06/15 03:12:15;;;;;;;20.63;8.15;;;;;;;11.00;100.00;101675.53;5055092;28;20039;-65
2022/06/15 03:14:40;;;;;;;21.08;8.82;;;;;;;10.97;100.00;101675.47;5054970;28;20108;-65
2022/06/15 03:17:06;;;;;;;20.38;8.30;;;;;;;10.95;100.00;101675.47;5055136;28;20017;-65
2022/06/15 03:19:31;;;;;;;21.13;8.85;;;;;;;10.92;100.00;101671.84;5054927;28;20071;-65
2022/06/15 03:21:56;;;;;;;20.27;8.68;;;;;;;10.94;100.00;101676.31;5055056;28;20029;-64
2022/06/15 03:24:22;;;;;;;20.80;8.45;;;;;;;10.96;100.00;101671.94;5054830;28;20033;-65
2022/06/15 03:26:47;;;;;;;20.83;8.50;;;;;;;10.92;100.00;101672.78;5055077;28;20103;-65
2022/06/15 03:29:12;;;;;;;20.45;8.65;;;;;;;10.90;100.00;101679.78;5055257;28;20380;-65
2022/06/15 03:31:38;;;;;;;19.90;8.80;;;;;;;10.88;100.00;101678.88;5054994;28;20017;-62
2022/06/15 03:34:03;;;;;;;20.65;8.82;;;;;;;10.85;100.00;101680.56;5054661;28;20025;-65
2022/06/15 03:36:28;;;;;;;19.80;8.40;;;;;;;10.89;100.00;101677.09;5053323;28;20032;-65
2022/06/15 03:38:54;;;;;;;20.10;8.57;;;;;;;10.90;100.00;101687.72;5054572;28;20037;-65
2022/06/15 03:41:20;;;;;;;21.10;8.68;;;;;;;10.95;100.00;101682.47;5054345;28;20048;-65
2022/06/15 03:43:46;;;;;;;20.45;8.88;;;;;;;10.93;100.00;101684.22;5054928;28;20037;-65
2022/06/15 03:46:13;;;;;;;21.10;9.30;;;;;;;10.94;100.00;101686.03;5054538;28;20404;-65
2022/06/15 03:48:38;;;;;;;21.08;8.68;;;;;;;10.95;100.00;101693.97;5054575;28;20379;-65
2022/06/15 03:51:04;;;;;;;21.25;9.13;;;;;;;10.94;100.00;101693.94;5054407;28;20025;-65
2022/06/15 03:53:29;;;;;;;21.00;9.45;;;;;;;10.90;100.00;101690.34;5054478;28;20021;-65
2022/06/15 03:55:54;;;;;;;19.63;9.15;;;;;;;10.95;100.00;101691.34;5054997;28;20082;-64
2022/06/15 03:58:20;;;;;;;21.38;9.13;;;;;;;10.92;100.00;101687.72;5053257;28;20044;-65
2022/06/15 04:00:46;;;;;;;21.45;9.13;;;;;;;10.96;100.00;101684.28;5054069;28;20074;-65
2022/06/15 04:03:12;;;;;;;22.67;9.00;;;;;;;10.94;100.00;101688.66;5054354;28;20079;-65
2022/06/15 04:05:57;;;;;;;20.85;9.30;;;;;;;10.96;100.00;101684.28;5054353;28;20500;-64
2022/06/15 04:08:35;;;;;;;20.98;9.07;;;;;;;10.98;100.00;101688.72;5054104;28;20091;-65
2022/06/15 04:11:07;;;;;;;21.75;9.70;;;;;;;11.05;100.00;101692.34;5050630;28;20029;-66
2022/06/15 04:13:33;;;;;;;22.15;9.82;;;;;;;11.08;100.00;101691.50;5054084;28;20095;-65
2022/06/15 04:15:59;;;;;;;20.90;9.35;;;;;;;11.07;100.00;101695.03;5053954;28;20032;-66
2022/06/15 04:18:25;;;;;;;22.13;10.73;;;;;;;11.07;100.00;101695.94;5053702;28;20029;-65
2022/06/15 04:20:50;;;;;;;22.27;10.20;;;;;;;11.11;100.00;101689.81;5054067;28;20114;-65
2022/06/15 04:23:19;;;;;;;23.30;10.98;;;;;;;11.16;100.00;101697.81;5053893;28;20526;-65
2022/06/15 04:25:52;;;;;;;21.80;10.32;;;;;;;11.26;100.00;101696.22;5053713;28;20120;-66
2022/06/15 04:28:20;;;;;;;22.00;10.52;;;;;;;11.24;100.00;101692.63;5053877;28;20033;-65
2022/06/15 04:30:46;;;;;;;22.85;10.43;;;;;;;11.34;100.00;101686.63;5053628;28;20079;-61
2022/06/15 04:33:12;;;;;;;21.98;10.23;;;;;;;11.38;100.00;101692.84;5053664;28;20029;-64
2022/06/15 04:35:37;;;;;;;22.83;10.00;;;;;;;11.45;100.00;101689.44;5053367;28;20025;-63
2022/06/15 04:38:03;;;;;;;22.25;10.27;;;;;;;11.44;100.00;101688.53;5053897;28;20029;-65
2022/06/15 04:40:30;;;;;;;22.25;11.10;;;;;;;11.57;100.00;101689.59;5053224;28;20144;-65
2022/06/15 04:42:56;;;;;;;23.40;11.07;;;;;;;11.61;100.00;101687.88;5053348;28;20504;-65
2022/06/15 04:45:21;;;;;;;21.50;10.60;;;;;;;11.69;100.00;101680.91;5053573;28;20442;-65
2022/06/15 04:47:48;;;;;;;22.20;10.60;;;;;;;11.74;100.00;101688.94;5053151;28;20021;-65
2022/06/15 04:50:14;;;;;;;21.45;10.35;;;;;;;11.81;100.00;101691.69;5053371;28;20032;-65
2022/06/15 04:52:41;;;;;;;23.70;10.73;;;;;;;11.88;100.00;101692.63;5053703;28;20380;-65
2022/06/15 04:55:09;;;;;;;23.25;10.70;;;;;;;11.95;100.00;101694.53;5053152;28;20029;-64
2022/06/15 04:57:35;;;;;;;22.80;9.93;;;;;;;12.02;100.00;101699.03;5053071;28;20031;-65
2022/06/15 05:00:00;;;;;;;21.63;9.90;;;;;;;12.11;100.00;101695.59;5053234;28;20025;-66
2022/06/15 05:02:25;;;;;;;23.58;10.10;;;;;;;12.17;100.00;101698.34;5049065;28;20079;-65
2022/06/15 05:04:51;;;;;;;22.25;10.30;;;;;;;12.21;100.00;101701.91;5053221;28;20022;-65
2022/06/15 05:07:16;;;;;;;21.98;10.00;;;;;;;12.28;100.00;101694.91;5053142;28;20376;-65
2022/06/15 05:09:47;;;;;;;23.50;10.40;;;;;;;12.37;100.00;101695.00;5053238;28;20099;-65
2022/06/15 05:12:13;;;;;;;25.00;10.93;;;;;;;12.37;100.00;101693.22;5052310;28;20021;-65
2022/06/15 05:14:38;;;;;;;23.42;10.45;;;;;;;12.45;100.00;101697.72;5053022;28;20060;-65
2022/06/15 05:17:03;;;;;;;24.23;10.75;;;;;;;12.51;100.00;101697.81;5052644;28;20104;-65
2022/06/15 05:19:29;;;;;;;22.50;9.77;;;;;;;12.56;100.00;101699.59;5052700;28;20126;-65
2022/06/15 05:21:54;;;;;;;22.67;10.43;;;;;;;12.69;100.00;101702.38;5053046;28;20116;-65
2022/06/15 05:24:19;;;;;;;21.48;10.07;;;;;;;12.70;100.00;101704.19;5052729;28;20053;-65
2022/06/15 05:26:45;;;;;;;24.73;10.50;;;;;;;12.74;100.00;101708.59;5052621;28;20063;-64
2022/06/15 05:29:10;;;;;;;24.05;10.55;;;;;;;12.83;100.00;101705.16;5053072;28;20021;-65
2022/06/15 05:31:35;;;;;;;23.48;11.05;;;;;;;12.91;100.00;101696.38;5048468;28;20107;-68
2022/06/15 05:34:01;;;;;;;24.38;11.50;;;;;;;13.01;100.00;101699.13;5048762;28;20025;-67
2022/06/15 05:36:30;;;;;;;23.65;11.30;;;;;;;13.11;100.00;101700.97;5049313;28;20427;-62
2022/06/15 05:38:56;;;;;;;23.35;11.10;;;;;;;13.14;100.00;101700.97;5050126;28;20843;-63
2022/06/15 05:41:22;;;;;;;23.80;11.30;;;;;;;13.28;100.00;101702.84;5050046;28;20068;-62
2022/06/15 05:43:51;;;;;;;24.48;11.65;;;;;;;13.37;100.00;101703.84;5051202;28;20367;-64
2022/06/15 05:46:27;;;;;;;24.83;11.93;;;;;;;13.44;100.00;101710.09;5050075;28;20029;-66
2022/06/15 05:48:53;;;;;;;23.92;11.88;;;;;;;13.52;100.00;101716.31;5050708;28;20032;-64
2022/06/15 05:51:19;;;;;;;23.70;12.00;;;;;;;13.57;100.00;101711.94;5050543;28;20025;-63
2022/06/15 05:53:44;;;;;;;26.38;12.60;;;;;;;13.63;100.00;101710.16;5050622;28;20086;-64
2022/06/15 05:56:10;;;;;;;25.27;12.50;;;;;;;13.71;100.00;101709.34;5050361;28;20483;-64
2022/06/15 05:58:35;;;;;;;23.67;12.30;;;;;;;13.79;100.00;101709.38;5051073;28;20395;-64
2022/06/15 06:01:34;;;;;;;23.92;12.77;;;;;;;13.86;100.00;101708.53;5050573;28;20111;-64
2022/06/15 06:04:00;;;;;;;22.88;12.75;;;;;;;13.92;100.00;101711.22;5008423;28;20096;-63
2022/06/15 06:06:27;;;;;;;25.17;12.70;;;;;;;13.98;100.00;101713.00;5007945;28;20034;-64
2022/06/15 06:08:53;;;;;;;23.92;12.95;;;;;;;14.04;100.00;101707.72;5008587;28;20153;-63
2022/06/15 06:11:19;;;;;;;23.90;12.93;;;;;;;14.19;100.00;101708.66;5008756;28;20538;-62
2022/06/15 06:13:44;;;;;;;23.10;12.50;;;;;;;14.29;100.00;101713.13;5004299;28;20125;-64
2022/06/15 06:16:10;;;;;;;23.00;12.38;;;;;;;14.37;100.00;101705.16;5007103;28;20241;-63
2022/06/15 06:18:35;;;;;;;24.30;12.40;;;;;;;14.40;100.00;101694.50;5008581;28;20034;-63
2022/06/15 06:21:01;;;;;;;23.90;12.23;;;;;;;14.46;100.00;101706.06;5008459;28;20046;-64
2022/06/15 06:23:26;;;;;;;22.77;12.38;;;;;;;14.56;100.00;101701.66;5010437;28;20118;-63
2022/06/15 06:25:53;;;;;;;22.90;11.75;;;;;;;14.62;100.00;101704.34;5012130;28;20181;-63
2022/06/15 06:28:32;;;;;;;22.80;11.57;;;;;;;14.68;100.00;101699.91;5011338;28;20108;-64
2022/06/15 06:30:59;;;;;;;25.17;12.77;;;;;;;14.75;100.00;101707.00;5011893;28;20123;-62
2022/06/15 06:33:26;;;;;;;24.45;13.60;;;;;;;14.83;100.00;101707.91;5011482;28;20049;-64
2022/06/15 06:35:53;;;;;;;23.85;12.55;;;;;;;14.89;100.00;101699.91;5009954;28;20036;-64
2022/06/15 06:38:18;;;;;;;22.98;12.82;;;;;;;15.03;100.00;101707.00;5011886;28;20025;-63
2022/06/15 06:40:44;;;;;;;24.58;13.25;;;;;;;15.11;100.00;101713.22;5051384;28;20253;-64
2022/06/15 06:43:09;;;;;;;25.23;13.88;;;;;;;15.18;100.00;101706.13;5053652;28;20112;-64
2022/06/15 06:45:35;;;;;;;22.52;13.40;;;;;;;15.25;100.00;101708.78;5053346;28;20032;-64
2022/06/15 06:48:00;;;;;;;23.85;13.13;;;;;;;15.32;100.00;101710.53;5053592;28;20056;-63
2022/06/15 06:50:26;;;;;;;27.90;15.32;;;;;;;15.41;100.00;101719.41;5053976;28;20031;-64
2022/06/15 06:52:53;;;;;;;22.50;11.93;;;;;;;15.45;100.00;101711.41;5052775;28;20079;-64
2022/06/15 06:55:20;;;;;;;25.77;12.38;;;;;;;15.52;100.00;101713.16;5053266;28;20387;-64
2022/06/15 06:57:45;;;;;;;24.70;12.25;;;;;;;15.64;100.00;101716.66;5053647;28;20039;-64
2022/06/15 07:00:11;;;;;;;23.30;12.43;;;;;;;15.74;100.00;101717.53;5053486;28;20017;-63
2022/06/15 07:02:37;;;;;;;23.88;12.65;;;;;;;15.84;100.00;101720.22;5052805;28;20503;-61
2022/06/15 07:05:02;;;;;;;23.88;12.27;;;;;;;15.92;100.00;101722.84;5052246;28;20033;-62
2022/06/15 07:07:27;;;;;;;23.75;11.45;;;;;;;15.97;100.00;101721.03;5053388;28;20040;-62
2022/06/15 07:09:53;;;;;;;24.90;12.00;;;;;;;16.06;100.00;101727.22;5053155;28;20024;-61
2022/06/15 07:12:18;;;;;;;24.00;12.13;;;;;;;16.16;100.00;101724.53;5053394;28;20032;-62
2022/06/15 07:14:43;;;;;;;23.30;12.02;;;;;;;16.24;100.00;101727.16;5053323;28;20411;-62
2022/06/15 07:17:09;;;;;;;23.73;11.82;;;;;;;16.36;100.00;101734.19;5049011;28;20025;-62
2022/06/15 07:19:34;;;;;;;24.33;12.30;;;;;;;16.52;100.00;101729.66;5050658;28;20032;-63
2022/06/15 07:21:59;;;;;;;22.73;11.10;;;;;;;16.64;100.00;101736.69;5051870;28;20539;-62
2022/06/15 07:24:25;;;;;;;22.45;11.30;;;;;;;16.81;100.00;101729.44;5050857;28;20025;-62
2022/06/15 07:26:50;;;;;;;22.70;11.02;;;;;;;16.90;99.79;101725.84;5052445;28;20025;-62
2022/06/15 07:29:21;;;;;;;22.77;10.77;;;;;;;16.97;96.91;101737.38;5054769;28;20071;-63
2022/06/15 07:31:52;;;;;;;22.92;10.73;;;;;;;17.13;99.16;101727.47;5054806;28;20028;-62
2022/06/15 07:34:18;;;;;;;22.80;10.90;;;;;;;17.19;98.70;101730.06;5054341;28;20025;-63
2022/06/15 07:36:47;;;;;;;23.92;11.23;;;;;;;17.23;97.05;101727.34;5054853;28;20023;-63
2022/06/15 07:39:18;;;;;;;23.33;10.65;;;;;;;17.33;95.48;101730.81;5054511;28;20024;-63
2022/06/15 07:41:45;;;;;;;22.90;10.80;;;;;;;17.48;97.08;101723.56;5054010;28;20107;-66
2022/06/15 07:44:10;;;;;;;22.95;10.30;;;;;;;17.54;96.36;101728.84;5054688;28;20364;-62
2022/06/15 07:46:36;;;;;;;21.80;10.23;;;;;;;17.68;94.51;101734.91;5054739;28;20025;-63
2022/06/15 07:51:51;;;;;;;20.88;9.88;;;;;;;17.87;91.65;101742.72;5051971;28;20509;-63
2022/06/15 07:54:18;;;;;;;22.83;9.57;;;;;;;17.94;90.60;101740.00;5054477;28;20051;-64
2022/06/15 07:56:44;;;;;;;22.67;9.48;;;;;;;18.10;90.76;101738.00;5054337;28;20032;-62
2022/06/15 07:59:09;;;;;;;21.80;9.32;;;;;;;18.22;89.28;101741.44;5054259;28;20391;-62
2022/06/15 08:01:36;;;;;;;21.55;8.45;;;;;;;18.25;85.92;101739.59;5050136;28;20403;-63
2022/06/15 08:04:01;;;;;;;22.10;9.43;;;;;;;18.37;85.94;101733.19;5054396;28;20071;-62
2022/06/15 08:06:29;;;;;;;20.30;8.82;;;;;;;18.46;84.50;101743.78;5054321;28;20026;-62
2022/06/15 08:08:54;;;;;;;21.77;8.75;;;;;;;18.63;83.49;101740.84;5054206;28;20051;-63
2022/06/15 08:11:20;;;;;;;20.17;7.60;;;;;;;18.80;83.77;101737.91;5053864;28;20025;-62
2022/06/15 08:13:45;;;;;;;20.15;7.25;;;;;;;18.96;79.43;101735.91;5053892;28;20024;-62
2022/06/15 08:16:12;;;;;;;21.63;7.60;;;;;;;19.03;76.42;101736.66;5054299;28;20033;-62
2022/06/15 08:18:46;;;;;;;21.70;7.18;;;;;;;19.11;78.68;101734.75;5053883;28;20047;-62
2022/06/15 08:21:16;;;;;;;19.77;6.70;;;;;;;19.24;75.85;101731.88;5050467;28;20035;-62
2022/06/15 08:23:45;;;;;;;20.20;6.82;;;;;;;19.42;77.48;101736.88;5053737;28;20025;-62
2022/06/15 08:26:18;;;;;;;21.38;7.10;;;;;;;19.50;75.00;101739.44;5049710;28;20033;-65
2022/06/15 08:28:47;;;;;;;19.33;6.10;;;;;;;19.68;74.89;101738.19;5050533;28;20554;-65
2022/06/15 08:31:14;;;;;;;20.45;6.65;;;;;;;19.79;73.11;101735.31;5051603;28;20028;-66
2022/06/15 08:33:40;;;;;;;21.70;7.45;;;;;;;19.87;72.59;101738.72;5052199;28;20025;-67
2022/06/15 08:36:07;;;;;;;19.25;7.07;;;;;;;19.94;70.80;101728.78;5051656;28;20017;-69
2022/06/15 08:38:33;;;;;;;20.90;7.10;;;;;;;20.04;71.11;101733.03;5051230;28;20025;-66
2022/06/15 08:41:03;;;;;;;19.17;6.60;;;;;;;20.13;69.10;101742.69;5050605;28;20045;-67
2022/06/15 08:44:08;;;;;;;20.00;6.60;;;;;;;20.18;65.95;101733.63;5050258;28;20495;-63
2022/06/15 08:46:50;;;;;;;19.45;6.25;;;;;;;20.28;66.18;101725.34;5024850;28;20562;-63
2022/06/15 08:49:30;;;;;;;20.00;6.43;;;;;;;20.36;64.94;101732.31;5028559;28;20554;-64
2022/06/15 08:52:03;;;;;;;20.65;6.28;;;;;;;20.42;62.34;101731.28;5029271;28;20048;-65
2022/06/15 08:54:43;;;;;;;20.55;6.15;;;;;;;20.58;64.11;101730.97;5025941;28;20489;-63
2022/06/15 08:57:38;;;;;;;18.58;6.20;;;;;;;20.69;61.46;101729.81;5024709;28;20037;-64
2022/06/15 09:00:15;;;;;;;20.17;5.80;;;;;;;20.88;63.02;101727.56;5029378;28;20111;-63
2022/06/15 09:02:51;;;;;;;18.02;5.68;;;;;;;21.04;61.51;101737.91;5029300;28;20102;-64
2022/06/15 09:05:31;;;;;;;20.55;6.40;;;;;;;21.24;61.92;101727.50;5025447;28;20087;-63
2022/06/15 09:08:27;;;;;;;18.27;5.63;;;;;;;21.29;60.04;101729.19;5028426;28;20141;-66
2022/06/15 09:11:04;;;;;;;17.20;5.13;;;;;;;21.29;55.56;101715.75;4963425;28;20045;-65
2022/06/15 09:13:45;;;;;;;19.13;5.63;;;;;;;21.39;57.86;101725.34;4956995;28;20075;-69
2022/06/15 09:16:24;;;;;;;19.50;6.30;;;;;;;21.54;58.34;101722.28;4936204;28;20047;-66
2022/06/15 09:19:06;;;;;;;18.83;5.63;;;;;;;21.78;58.62;101727.88;4958069;28;20027;-66
2022/06/15 09:21:34;;;;;;;;;;;;;;;21.91;58.35;101728.41;4988870;28;20097;-66
2022/06/15 09:24:09;;;;;;;19.45;6.30;;;;;;;22.07;56.90;101739.63;5007033;28;19956;-66
2022/06/15 09:26:49;;;;;;;24.20;6.65;;;;;;;22.21;56.00;101732.00;5006444;28;20173;-66
2022/06/15 09:29:33;;;;;;;18.85;5.82;;;;;;;22.32;52.95;101725.41;5006574;28;20029;-65
2022/06/15 09:32:27;;;;;;;19.65;6.20;;;;;;;22.37;54.50;101729.75;5007926;28;20034;-64
2022/06/15 09:35:07;;;;;;;20.13;6.40;;;;;;;22.43;52.08;101726.88;5008047;28;20038;-63
2022/06/15 09:37:35;;;;;;;19.40;5.93;;;;;;;22.52;52.95;101723.00;5008948;28;20472;-63
2022/06/15 09:40:02;;;;;;;20.05;6.38;;;;;;;22.65;51.80;101719.94;4992722;28;20172;-66
2022/06/15 09:42:41;;;;;;;18.15;6.00;;;;;;;22.56;52.45;101716.59;5002469;28;20260;-63
2022/06/15 09:45:31;;;;;;;18.02;5.78;;;;;;;22.88;53.34;101720.03;5003433;28;20026;-63
2022/06/15 09:48:10;;;;;;;18.75;5.95;;;;;;;23.12;51.80;101707.56;5026387;28;20121;-63
2022/06/15 09:50:47;;;;;;;19.42;5.50;;;;;;;23.32;52.91;101716.78;5049209;28;20130;-63
2022/06/15 09:53:22;;;;;;;17.30;5.22;;;;;;;23.45;49.08;101719.94;5052773;28;20039;-63
2022/06/15 09:56:04;;;;;;;16.55;5.03;;;;;;;23.69;49.41;101715.44;5052341;28;20052;-63
2022/06/15 09:58:33;;;;;;;;;;;;;;;23.83;48.76;101712.22;5056291;28;20484;-63
2022/06/15 10:00:58;;;;;;;17.60;5.22;;;;;;;24.07;46.16;101709.56;5056259;28;19940;-65
2022/06/15 10:03:29;;;;;;;18.80;5.72;;;;;;;24.12;45.93;101713.84;5056639;28;20029;-65
2022/06/15 10:06:05;;;;;;;20.25;5.50;;;;;;;24.66;43.82;101719.84;5055353;28;20037;-66
2022/06/15 10:08:31;;;;;;;19.60;5.38;;;;;;;26.18;40.01;101714.09;5052360;28;20069;-62
2022/06/15 10:10:59;;;;;;;20.05;5.30;;;;;;;28.13;35.21;101724.03;5056183;28;20103;-65
2022/06/15 10:13:33;;;;;;;18.30;4.90;;;;;;;29.83;32.26;101732.25;5056231;28;20060;-63
2022/06/15 10:16:18;;;;;;;19.60;5.35;;;;;;;30.81;28.96;101724.94;5056143;28;20477;-63
2022/06/15 10:18:46;;;;;;;18.10;5.20;;;;;;;31.87;26.66;101727.66;5053955;28;20095;-65
2022/06/15 10:21:14;;;;;;;18.88;5.20;;;;;;;32.29;26.89;101719.19;5055977;28;20029;-64
2022/06/15 10:23:57;;;;;;;15.70;5.10;;;;;;;32.72;27.86;101720.56;5056149;28;20029;-63
2022/06/15 10:26:28;;;;;;;19.60;5.40;;;;;;;32.79;25.18;101714.50;5056104;28;20025;-61
2022/06/15 10:28:55;;;;;;;18.10;4.90;;;;;;;33.91;24.38;101712.19;5056361;28;20025;-62
2022/06/15 10:31:28;;;;;;;19.73;5.30;;;;;;;34.18;24.48;101716.41;5055681;28;20071;-61
2022/06/15 10:33:55;;;;;;;19.45;4.93;;;;;;;33.79;23.91;101715.94;5055973;28;20029;-62
2022/06/15 10:36:26;;;;;;;19.33;5.13;;;;;;;33.44;24.49;101709.53;5055708;28;20460;-62
2022/06/15 10:39:27;;;;;;;19.80;5.45;;;;;;;33.52;25.40;101719.88;5056086;28;20060;-63
2022/06/15 10:42:08;;;;;;;18.40;5.10;;;;;;;33.93;25.29;101718.44;5054560;28;20045;-63
2022/06/15 10:44:48;;;;;;;18.05;4.88;;;;;;;34.85;24.32;101711.78;5052240;28;20069;-62
2022/06/15 10:47:20;;;;;;;17.27;4.88;;;;;;;35.27;23.77;101714.56;5053761;28;20040;-62
2022/06/15 10:49:50;;;;;;;19.38;4.78;;;;;;;35.96;21.64;101710.34;5055589;28;20021;-62
2022/06/15 10:52:26;;;;;;;17.60;4.55;;;;;;;36.78;22.42;101717.50;5055316;28;20484;-61
2022/06/15 11:03:40;;;;;;;20.95;5.78;;;;;;;36.24;20.74;101699.56;5052804;28;20094;-61
2022/06/15 11:06:06;;;;;;;18.67;5.20;;;;;;;36.20;20.91;101695.38;5055190;28;20029;-61
2022/06/15 11:08:33;;;;;;;18.08;4.68;;;;;;;36.41;21.75;101700.81;5054736;28;20488;-62
2022/06/15 11:11:24;;;;;;;18.63;4.93;;;;;;;36.67;22.12;101686.47;5053371;28;20525;-63
2022/06/15 11:13:57;;;;;;;15.80;4.75;;;;;;;36.50;20.12;101690.81;5053572;28;20047;-64
2022/06/15 11:19:23;;;;;;;16.23;4.60;;;;;;;37.70;19.93;101695.91;5053650;28;20128;-63
2022/06/15 11:22:13;;;;;;;18.48;5.13;;;;;;;38.04;20.77;101695.34;5054777;28;20028;-62
2022/06/15 11:24:49;;;;;;;19.48;5.43;;;;;;;38.07;20.11;101695.03;5051648;28;20017;-62
2022/06/15 11:27:24;;;;;;;18.10;5.20;;;;;;;37.79;19.63;101686.78;5054863;28;20032;-62
2022/06/15 11:30:21;;;;;;;17.73;4.60;;;;;;;37.42;21.42;101690.34;5054747;28;20495;-64
2022/06/15 11:33:18;;;;;;;19.92;5.10;;;;;;;37.83;20.72;101696.44;5052877;28;20075;-62
2022/06/15 11:35:55;;;;;;;18.85;5.30;;;;;;;38.27;20.18;101697.72;5025953;28;20506;-63
2022/06/15 11:38:27;;;;;;;17.38;5.20;;;;;;;38.45;19.32;101694.97;5032600;28;20030;-62